Pagrindinis puslapis
METAR-TAF:

METAR-TAF

Oro uostai :

Prezidente Prudentė, San Paulas, Brazilija

platuma: 22-07S, ilguma: 051-23W, Aukštis: 436 m

Dabartinis oras

Ataskaita buvo paskelbta 36 minutes, ne 10:00 UTC
Vėjas 12 kt iš Rytų/Šiaurės Rytų, svyruoja nuo Šiaurės ir Rytų/Pietryčių
Temperatūra 24°C
Drėgmė 65%
Slėgis 1012 hPa
Matomumas 10 km arba daugiau
Mažai debesys ne aukštis 4500 ft
Su prošvaistėmis ne aukštis 10000 ft

METAR: SBDN 091000Z 06012KT 010V110 9999 FEW045 BKN100 24/17 Q1012

Laikas: 07:36 (10:36 UTC)

Prognozė

Ataskaita buvo paskelbta 7 valandos ir 36 minutes, ne 03:00 UTC
Prognozė galioja nuo 09 metu 06 UTC su 09 metu 18 UTC
Vėjas 8 kt iš Rytų
Matomumas 10 km arba daugiau
nėra debesų žemiau 1500 m ir nėra kamuolinių lietaus debesų
Tapsmas
nuo 09 metu 14 UTC su 09 metu 16 UTC
Matomumas 10 km arba daugiau
Išsisklaidę debesys ne aukštis 4000 ft
Mažai debesys ne aukštis 4500 ft, aukštai iškilę kamuoliniai debesys.

TAF: SBDN 090300Z 0906/0918 10008KT CAVOK TN24/0908Z TX31/0918Z BECMG 0914/0916 9999 SCT040 FEW045TCU RMK PDJ

Orai ataskaitas ir orų prognozės (METAR, TAF).

turimą stotys yra geltonos ir raudonos taškus žemėlapyje.

Perkelti pele per norėdami pamatyti stoties vardą.

Tada spustelėkite, norėdami matyti oro stebėjimo ir prognozės.

Norėdami pakeisti žemėlapį: spustelėkite ant žalios mygtukų su juodo kryžiaus žemyn,; žalią mygtuką su brūkšneliu, jei norite nutolinti; arba žalių rodyklių gretimoms žemėlapius.


METAR-TAF: